createdAt,value
2023-04-14T00:02:44.813Z,3.00
2023-04-14T00:05:31.443Z,3.50
2023-04-14T00:08:17.582Z,2.80
2023-04-14T00:11:04.022Z,2.80
2023-04-14T00:13:51.745Z,3.30
2023-04-14T00:16:39.497Z,3.13
2023-04-14T00:19:25.997Z,3.30
2023-04-14T00:22:12.333Z,3.00
2023-04-14T00:24:59.176Z,3.30
2023-04-14T00:27:45.164Z,3.10
2023-04-14T00:30:32.846Z,3.45
2023-04-14T00:33:19.148Z,3.45
2023-04-14T00:36:06.469Z,3.80
2023-04-14T00:38:53.017Z,3.47
2023-04-14T00:41:39.169Z,3.70
2023-04-14T00:44:26.284Z,3.42
2023-04-14T00:47:14.507Z,3.28
2023-04-14T00:50:00.850Z,3.42
2023-04-14T00:52:48.370Z,3.10
2023-04-14T00:55:34.863Z,3.55
2023-04-14T00:58:21.069Z,3.40
2023-04-14T01:01:08.018Z,3.75
2023-04-14T01:03:56.088Z,3.17
2023-04-14T01:06:42.666Z,3.67
2023-04-14T01:09:29.303Z,3.63
2023-04-14T01:12:26.601Z,4.00
2023-04-14T01:15:19.556Z,4.25
2023-04-14T01:18:11.826Z,4.25
2023-04-14T01:21:06.381Z,4.93
2023-04-14T01:24:09.657Z,4.97
2023-04-14T01:27:06.516Z,5.13
2023-04-14T01:30:11.270Z,5.40
2023-04-14T01:33:04.384Z,5.07
2023-04-14T01:35:56.213Z,4.57
2023-04-14T01:38:45.301Z,4.90
2023-04-14T01:41:35.192Z,5.10
2023-04-14T01:44:23.966Z,5.63
2023-04-14T01:47:13.846Z,5.18
2023-04-14T01:50:05.169Z,5.45
2023-04-14T01:52:54.200Z,5.18
2023-04-14T01:55:44.015Z,5.30
2023-04-14T01:58:32.112Z,5.20
2023-04-14T02:01:20.301Z,5.13
2023-04-14T02:06:57.338Z,4.95
2023-04-14T02:09:46.120Z,5.53
2023-04-14T02:12:32.670Z,5.75
2023-04-14T02:15:19.610Z,5.28
2023-04-14T02:18:07.882Z,5.55
2023-04-14T02:20:57.138Z,4.50
2023-04-14T02:23:44.686Z,4.90
2023-04-14T02:26:33.377Z,4.63
2023-04-14T02:29:22.634Z,4.82
2023-04-14T02:32:15.861Z,4.88
2023-04-14T02:35:09.027Z,5.20
2023-04-14T02:38:01.214Z,6.18
2023-04-14T02:40:49.501Z,5.20
2023-04-14T02:43:44.184Z,5.07
2023-04-14T02:46:36.231Z,6.07
2023-04-14T02:49:23.647Z,6.85
2023-04-14T02:52:14.859Z,7.25
2023-04-14T02:55:04.715Z,6.30
2023-04-14T02:57:54.030Z,7.25
2023-04-14T03:00:42.036Z,5.88
2023-04-14T03:03:29.991Z,6.63
2023-04-14T03:06:19.892Z,5.65
2023-04-14T03:09:06.443Z,6.05
2023-04-14T03:11:55.024Z,6.63
2023-04-14T03:14:44.118Z,6.75
2023-04-14T03:17:32.423Z,6.63
2023-04-14T03:20:21.733Z,7.18
2023-04-14T03:23:12.071Z,6.95
2023-04-14T03:26:06.133Z,7.15
2023-04-14T03:28:54.363Z,6.40
2023-04-14T03:31:44.701Z,8.40
2023-04-14T03:34:34.612Z,6.85
2023-04-14T03:37:25.918Z,6.90
2023-04-14T03:40:15.530Z,6.05
2023-04-14T03:43:05.668Z,6.70
2023-04-14T03:45:52.225Z,6.32
2023-04-14T03:48:44.161Z,6.30
2023-04-14T03:51:35.021Z,6.35
2023-04-14T03:54:24.001Z,6.43
2023-04-14T03:57:12.968Z,6.50
2023-04-14T04:00:02.216Z,6.13
2023-04-14T04:03:00.797Z,6.28
2023-04-14T04:05:49.557Z,5.95
2023-04-14T04:08:37.652Z,6.30
2023-04-14T04:11:25.909Z,5.25
2023-04-14T04:14:14.258Z,5.05
2023-04-14T04:17:06.853Z,5.25
2023-04-14T04:19:55.902Z,5.93
2023-04-14T04:22:46.131Z,6.43
2023-04-14T04:25:33.254Z,5.45
2023-04-14T04:28:27.603Z,5.18
2023-04-14T04:31:15.990Z,6.20
2023-04-14T04:34:03.515Z,6.22
2023-04-14T04:36:53.211Z,6.03
2023-04-14T04:39:41.071Z,5.68
2023-04-14T04:42:28.460Z,5.07
2023-04-14T04:45:36.454Z,5.70
2023-04-14T04:48:23.165Z,5.43
2023-04-14T04:51:09.495Z,4.90
2023-04-14T04:53:55.496Z,5.75
2023-04-14T04:56:42.870Z,4.93
2023-04-14T04:59:29.693Z,5.07
2023-04-14T05:02:15.661Z,5.43
2023-04-14T05:05:01.729Z,7.18
2023-04-14T05:07:48.169Z,5.22
2023-04-14T05:10:35.350Z,5.45
2023-04-14T05:13:23.086Z,5.68
2023-04-14T05:16:10.783Z,5.80
2023-04-14T05:18:57.119Z,5.28
2023-04-14T05:21:43.705Z,6.18
2023-04-14T05:24:31.149Z,5.53
2023-04-14T05:27:17.218Z,6.03
2023-04-14T05:30:05.284Z,5.50
2023-04-14T05:32:51.941Z,5.75
2023-04-14T05:35:38.096Z,5.72
2023-04-14T05:38:24.302Z,5.10
2023-04-14T05:41:11.907Z,5.85
2023-04-14T05:43:58.373Z,5.80
2023-04-14T05:46:46.690Z,5.07
2023-04-14T05:49:33.584Z,5.35
2023-04-14T05:52:20.509Z,6.22
2023-04-14T05:55:08.625Z,5.15
2023-04-14T05:57:55.072Z,5.43
2023-04-14T06:00:43.130Z,5.97
2023-04-14T06:03:33.033Z,5.22
2023-04-14T06:06:20.821Z,6.30
2023-04-14T06:09:07.150Z,5.03
2023-04-14T06:11:53.979Z,4.68
2023-04-14T06:14:40.485Z,5.10
2023-04-14T06:17:28.155Z,5.38
2023-04-14T06:20:15.870Z,5.53
2023-04-14T06:23:05.476Z,5.00
2023-04-14T06:25:55.613Z,4.97
2023-04-14T06:28:43.676Z,4.70
2023-04-14T06:31:30.440Z,4.22
2023-04-14T06:34:17.227Z,4.20
2023-04-14T06:37:04.776Z,4.75
2023-04-14T06:39:51.316Z,3.75
2023-04-14T06:42:37.722Z,4.00
2023-04-14T06:45:24.137Z,4.38
2023-04-14T06:48:12.492Z,4.18
2023-04-14T06:50:58.825Z,3.70
2023-04-14T06:53:46.865Z,3.88
2023-04-14T06:56:34.422Z,4.45
2023-04-14T06:59:23.067Z,4.07
2023-04-14T07:02:11.115Z,4.28
2023-04-14T07:04:58.197Z,4.15
2023-04-14T07:07:47.038Z,4.63
2023-04-14T07:10:35.170Z,4.03
2023-04-14T07:13:21.914Z,3.85
2023-04-14T07:16:10.791Z,4.13
2023-04-14T07:18:57.157Z,5.07
2023-04-14T07:21:45.896Z,4.07
2023-04-14T07:24:32.203Z,4.18
2023-04-14T07:27:21.709Z,3.72
2023-04-14T07:30:09.837Z,3.03
2023-04-14T07:32:55.942Z,3.78
2023-04-14T07:35:54.455Z,3.40
2023-04-14T07:38:50.545Z,3.40
2023-04-14T07:41:36.899Z,3.13
2023-04-14T07:44:24.972Z,2.75
2023-04-14T07:47:12.052Z,3.40
2023-04-14T07:49:58.668Z,3.10
2023-04-14T07:52:45.508Z,3.30
2023-04-14T07:55:31.920Z,3.05
2023-04-14T07:58:18.213Z,3.30
2023-04-14T08:01:06.361Z,3.38
2023-04-14T08:03:54.649Z,2.80
2023-04-14T08:06:41.511Z,2.75
2023-04-14T08:09:29.100Z,2.80
2023-04-14T08:12:17.105Z,2.95
2023-04-14T08:15:03.670Z,2.20
2023-04-14T08:17:54.055Z,2.58
2023-04-14T08:20:41.659Z,2.33
2023-04-14T08:23:28.270Z,2.00
2023-04-14T08:26:14.642Z,3.05
2023-04-14T08:29:01.242Z,2.20
2023-04-14T08:31:48.002Z,2.00
2023-04-14T08:34:37.960Z,2.08
2023-04-14T08:37:24.266Z,1.67
2023-04-14T08:40:11.838Z,2.30
2023-04-14T08:42:58.337Z,1.85
2023-04-14T08:45:45.160Z,2.55
2023-04-14T08:48:33.230Z,2.00
2023-04-14T08:51:28.111Z,1.88
2023-04-14T08:54:17.016Z,1.70
2023-04-14T08:57:05.615Z,2.05
2023-04-14T08:59:57.439Z,2.00
2023-04-14T09:02:44.458Z,1.80
2023-04-14T09:05:31.129Z,1.40
2023-04-14T09:08:21.074Z,1.83
2023-04-14T09:11:07.519Z,1.80
2023-04-14T09:13:54.655Z,1.98
2023-04-14T09:16:41.007Z,1.95
2023-04-14T09:19:28.020Z,2.13
2023-04-14T09:22:15.537Z,1.75
2023-04-14T09:25:04.206Z,2.22
2023-04-14T09:27:50.835Z,1.85
2023-04-14T09:30:38.433Z,1.88
2023-04-14T09:33:25.450Z,1.75
2023-04-14T09:36:19.557Z,1.58
2023-04-14T09:39:17.328Z,2.00
2023-04-14T09:42:06.148Z,1.80
2023-04-14T09:44:56.282Z,1.70
2023-04-14T09:47:42.572Z,1.63
2023-04-14T09:50:28.843Z,1.75
2023-04-14T09:53:15.535Z,1.75
2023-04-14T09:56:04.854Z,1.80
2023-04-14T09:59:00.519Z,1.55
2023-04-14T10:01:47.581Z,1.60
2023-04-14T10:04:35.135Z,1.40
2023-04-14T10:07:21.625Z,2.42
2023-04-14T10:10:11.547Z,2.03
2023-04-14T10:12:58.026Z,1.90
2023-04-14T10:15:50.574Z,1.40
2023-04-14T10:18:37.798Z,2.10
2023-04-14T10:21:24.294Z,2.03
2023-04-14T10:24:12.739Z,2.08
2023-04-14T10:27:04.111Z,1.80
2023-04-14T10:29:50.628Z,2.03
2023-04-14T10:32:42.658Z,1.73
2023-04-14T10:35:40.742Z,2.00
2023-04-14T10:38:59.478Z,1.90
2023-04-14T10:41:47.661Z,1.60
2023-04-14T10:44:36.323Z,2.10
2023-04-14T10:47:25.009Z,1.30
2023-04-14T10:50:16.321Z,1.98
2023-04-14T10:53:09.330Z,1.92
2023-04-14T10:55:57.225Z,1.52
2023-04-14T10:58:57.667Z,1.95
2023-04-14T11:01:44.250Z,1.52
2023-04-14T11:04:30.545Z,1.60
2023-04-14T11:07:22.847Z,1.52
2023-04-14T11:10:32.045Z,1.40
2023-04-14T11:13:19.192Z,1.52
2023-04-14T11:16:07.342Z,1.38
2023-04-14T11:18:55.547Z,1.55
2023-04-14T11:21:49.738Z,1.52
2023-04-14T11:24:40.275Z,1.60
2023-04-14T11:27:26.666Z,1.60
2023-04-14T11:30:15.601Z,1.25
2023-04-14T11:33:01.703Z,1.40
2023-04-14T11:35:48.937Z,1.60
2023-04-14T11:38:40.243Z,2.33
2023-04-14T11:41:31.323Z,1.80
2023-04-14T11:44:17.975Z,1.70
2023-04-14T11:47:05.176Z,1.52
2023-04-14T11:49:53.270Z,1.48
2023-04-14T11:52:46.735Z,1.98
2023-04-14T11:55:33.122Z,1.15
2023-04-14T11:58:24.466Z,1.70
2023-04-14T12:01:14.786Z,1.27
2023-04-14T12:04:01.722Z,1.40
2023-04-14T12:06:48.328Z,1.50
2023-04-14T12:09:35.284Z,1.50
2023-04-14T12:12:21.574Z,1.38
2023-04-14T12:15:10.956Z,1.50
2023-04-14T12:17:58.111Z,1.60
2023-04-14T12:20:47.176Z,1.30
2023-04-14T12:23:35.783Z,1.65
2023-04-14T12:26:22.046Z,1.25
2023-04-14T12:29:08.850Z,1.60
2023-04-14T12:31:56.634Z,1.30
2023-04-14T12:34:54.320Z,1.45
2023-04-14T12:37:41.362Z,1.10
2023-04-14T12:40:38.569Z,1.45
2023-04-14T12:43:29.400Z,1.48
2023-04-14T12:46:27.287Z,1.00
2023-04-14T12:49:37.481Z,1.10
2023-04-14T12:52:38.287Z,1.38
2023-04-14T12:55:27.396Z,1.25
2023-04-14T12:58:13.437Z,1.20
2023-04-14T13:01:00.155Z,1.63
2023-04-14T13:03:50.294Z,1.25
2023-04-14T13:06:38.808Z,1.00
2023-04-14T13:09:25.312Z,1.10
2023-04-14T13:12:14.658Z,1.40
2023-04-14T13:15:02.577Z,1.20
2023-04-14T13:17:49.259Z,1.42
2023-04-14T13:20:35.950Z,1.52
2023-04-14T13:23:23.724Z,1.35
2023-04-14T13:26:10.289Z,1.00
2023-04-14T13:28:56.845Z,1.40
2023-04-14T13:31:43.868Z,1.52
2023-04-14T13:34:30.759Z,1.45
2023-04-14T13:37:17.921Z,1.88
2023-04-14T13:40:06.625Z,1.23
2023-04-14T13:42:52.834Z,1.48
2023-04-14T13:45:40.049Z,1.27
2023-04-14T13:48:27.252Z,1.00
2023-04-14T13:51:14.880Z,1.05
2023-04-14T13:54:01.596Z,1.00
2023-04-14T13:56:52.339Z,1.02
2023-04-14T13:59:38.834Z,1.15
2023-04-14T14:02:25.083Z,1.15
2023-04-14T14:05:12.215Z,1.02
2023-04-14T14:07:59.586Z,1.00
2023-04-14T14:15:38.653Z,1.27
2023-04-14T14:18:25.234Z,1.23
2023-04-14T14:21:11.658Z,0.90
2023-04-14T14:24:00.957Z,1.30
2023-04-14T14:26:47.515Z,1.00
2023-04-14T14:29:36.742Z,1.30
2023-04-14T14:32:24.667Z,1.30
2023-04-14T14:35:11.398Z,0.98
2023-04-14T14:37:58.967Z,1.23
2023-04-14T14:40:46.381Z,3.22
2023-04-14T14:43:32.654Z,1.20
2023-04-14T14:46:19.108Z,1.30
2023-04-14T14:49:06.845Z,0.90
2023-04-14T14:51:53.103Z,1.15
2023-04-14T14:54:39.690Z,1.17
2023-04-14T14:57:30.338Z,1.15
2023-04-14T15:00:17.403Z,1.15
2023-04-14T15:03:05.282Z,1.48
2023-04-14T15:05:53.276Z,1.17
2023-04-14T15:08:39.640Z,1.13
2023-04-14T15:11:27.442Z,1.17
2023-04-14T15:14:13.682Z,1.38
2023-04-14T15:16:59.763Z,1.00
2023-04-14T15:19:46.377Z,1.17
2023-04-14T15:22:36.807Z,1.13
2023-04-14T15:25:23.007Z,1.35
2023-04-14T15:28:09.100Z,1.20
2023-04-14T15:30:55.916Z,1.02
2023-04-14T15:33:44.323Z,1.73
2023-04-14T15:36:32.505Z,1.08
2023-04-14T15:39:20.956Z,0.98
2023-04-14T15:42:07.513Z,1.40
2023-04-14T15:44:53.951Z,1.40
2023-04-14T15:47:40.292Z,0.95
2023-04-14T15:50:27.372Z,1.00
2023-04-14T15:53:13.701Z,2.30
2023-04-14T15:56:01.231Z,1.73
2023-04-14T15:58:47.377Z,1.20
2023-04-14T16:01:33.457Z,0.85
2023-04-14T16:04:20.260Z,0.88
2023-04-14T16:07:06.930Z,1.08
2023-04-14T16:09:53.665Z,0.75
2023-04-14T16:12:41.620Z,0.90
2023-04-14T16:15:28.265Z,1.00
2023-04-14T16:18:14.309Z,1.00
2023-04-14T16:21:00.428Z,0.98
2023-04-14T16:23:46.687Z,1.00
2023-04-14T16:26:34.078Z,1.08
2023-04-14T16:29:21.588Z,1.10
2023-04-14T16:32:08.303Z,1.00
2023-04-14T16:34:54.842Z,1.33
2023-04-14T16:37:41.522Z,1.20
2023-04-14T16:40:27.759Z,1.00
2023-04-14T16:43:14.007Z,1.00
2023-04-14T16:46:05.603Z,1.08
2023-04-14T16:48:52.455Z,1.27
2023-04-14T16:51:38.914Z,1.35
2023-04-14T16:54:24.982Z,1.17
2023-04-14T16:57:11.764Z,0.90
2023-04-14T16:59:57.934Z,0.95
2023-04-14T17:02:45.847Z,1.15
2023-04-14T17:05:32.439Z,1.13
2023-04-14T17:08:19.632Z,1.63
2023-04-14T17:11:06.612Z,3.35
2023-04-14T17:13:53.832Z,1.33
2023-04-14T17:16:41.349Z,1.10
2023-04-14T17:19:30.371Z,1.33
2023-04-14T17:22:17.623Z,1.20
2023-04-14T17:25:06.418Z,1.33
2023-04-14T17:27:53.692Z,0.98
2023-04-14T17:30:40.668Z,0.63
2023-04-14T17:33:28.135Z,1.10
2023-04-14T17:36:17.433Z,1.25
2023-04-14T17:39:04.421Z,1.92
2023-04-14T17:41:51.278Z,1.00
2023-04-14T17:44:38.192Z,1.42
2023-04-14T17:47:24.425Z,1.90
2023-04-14T17:50:11.791Z,1.65
2023-04-14T17:52:59.567Z,1.95
2023-04-14T17:55:46.102Z,1.60
2023-04-14T17:58:32.605Z,1.70
2023-04-14T18:01:19.366Z,1.38
2023-04-14T18:04:06.134Z,1.20
2023-04-14T18:06:56.025Z,1.23
2023-04-14T18:09:43.754Z,1.08
2023-04-14T18:12:30.858Z,1.38
2023-04-14T18:15:17.505Z,1.50
2023-04-14T18:18:04.020Z,1.52
2023-04-14T18:20:52.044Z,1.55
2023-04-14T18:23:38.689Z,2.03
2023-04-14T18:26:26.860Z,2.35
2023-04-14T18:29:13.327Z,1.92
2023-04-14T18:31:59.951Z,1.85
2023-04-14T18:34:46.600Z,2.28
2023-04-14T18:37:33.288Z,2.00
2023-04-14T18:40:19.769Z,1.95
2023-04-14T18:43:07.584Z,1.83
2023-04-14T18:45:53.908Z,2.90
2023-04-14T18:48:40.943Z,2.75
2023-04-14T18:51:27.506Z,3.85
2023-04-14T18:54:14.716Z,2.88
2023-04-14T18:57:01.106Z,2.72
2023-04-14T18:59:48.783Z,3.00
2023-04-14T19:02:35.430Z,2.90
2023-04-14T19:05:22.139Z,3.45
2023-04-14T19:08:08.778Z,2.90
2023-04-14T19:10:55.234Z,2.85
2023-04-14T19:13:42.305Z,2.75
2023-04-14T19:16:29.883Z,2.08
2023-04-14T19:19:16.665Z,1.85
2023-04-14T19:22:03.626Z,2.00
2023-04-14T19:24:50.915Z,1.90
2023-04-14T19:27:38.514Z,2.45
2023-04-14T19:30:25.043Z,2.63
2023-04-14T19:33:12.877Z,2.97
2023-04-14T19:35:59.441Z,2.33
2023-04-14T19:38:45.568Z,2.72
2023-04-14T19:41:32.008Z,3.50
2023-04-14T19:44:18.622Z,2.50
2023-04-14T19:47:04.954Z,4.40
2023-04-14T19:49:53.424Z,3.47
2023-04-14T19:52:39.694Z,3.92
2023-04-14T19:55:25.800Z,3.08
2023-04-14T19:58:12.750Z,4.32
2023-04-14T20:01:00.870Z,3.40
2023-04-14T20:04:05.587Z,2.78
2023-04-14T20:06:56.165Z,2.67
2023-04-14T20:09:46.425Z,2.00
2023-04-14T20:12:33.174Z,1.98
2023-04-14T20:15:19.743Z,1.85
2023-04-14T20:18:06.238Z,2.80
2023-04-14T20:20:52.625Z,3.15
2023-04-14T20:23:40.705Z,2.95
2023-04-14T20:26:27.439Z,2.60
2023-04-14T20:29:13.941Z,2.20
2023-04-14T20:32:00.543Z,2.45
2023-04-14T20:34:47.170Z,2.22
2023-04-14T20:37:33.638Z,2.42
2023-04-14T20:40:22.210Z,2.15
2023-04-14T20:43:08.736Z,2.80
2023-04-14T20:45:55.806Z,2.95
2023-04-14T20:48:42.397Z,2.80
2023-04-14T20:51:29.118Z,2.42
2023-04-14T20:54:15.617Z,2.05
2023-04-14T20:57:05.430Z,3.17
2023-04-14T20:59:51.950Z,2.85
2023-04-14T21:02:38.773Z,1.98
2023-04-14T21:05:26.299Z,2.42
2023-04-14T21:08:12.665Z,2.40
2023-04-14T21:11:15.703Z,2.58
2023-04-14T21:15:43.488Z,3.50
2023-04-14T21:17:11.869Z,2.42
2023-04-14T21:19:58.487Z,2.40
2023-04-14T21:22:44.836Z,2.92
2023-04-14T21:25:31.606Z,5.93
2023-04-14T21:28:18.778Z,6.68
2023-04-14T21:31:07.592Z,5.45
2023-04-14T21:33:53.902Z,3.88
2023-04-14T21:36:40.883Z,2.95
2023-04-14T21:39:29.790Z,3.67
2023-04-14T21:42:15.905Z,2.80
2023-04-14T21:45:04.715Z,3.25
2023-04-14T21:47:52.222Z,2.83
2023-04-14T21:50:39.623Z,4.03
2023-04-14T21:53:26.264Z,3.22
2023-04-14T21:56:14.404Z,4.72
2023-04-14T21:59:01.044Z,5.72
2023-04-14T22:01:49.314Z,3.17
2023-04-14T22:04:37.673Z,3.03
2023-04-14T22:07:24.892Z,3.10
2023-04-14T22:10:11.912Z,3.58
2023-04-14T22:12:57.986Z,3.55
2023-04-14T22:15:44.469Z,2.80
2023-04-14T22:18:31.783Z,3.25
2023-04-14T22:21:19.836Z,3.22
2023-04-14T22:24:07.216Z,3.38
2023-04-14T22:26:53.768Z,3.25
2023-04-14T22:29:40.592Z,3.50
2023-04-14T22:32:27.160Z,3.40
2023-04-14T22:35:13.899Z,2.88
2023-04-14T22:38:01.606Z,3.45
2023-04-14T22:40:49.827Z,3.10
2023-04-14T22:43:38.253Z,3.33
2023-04-14T22:46:24.410Z,3.33
2023-04-14T22:49:10.683Z,3.20
2023-04-14T22:51:57.664Z,3.63
2023-04-14T22:54:45.769Z,3.97
2023-04-14T22:57:33.204Z,3.30
2023-04-14T23:00:21.268Z,4.15
2023-04-14T23:03:07.410Z,3.75
2023-04-14T23:05:55.001Z,3.95
2023-04-14T23:08:40.985Z,4.43
2023-04-14T23:11:28.638Z,4.13
2023-04-14T23:14:15.046Z,3.30
2023-04-14T23:17:01.270Z,4.22
2023-04-14T23:19:47.560Z,3.95
2023-04-14T23:22:33.836Z,4.07
2023-04-14T23:25:20.325Z,3.90
2023-04-14T23:28:08.272Z,3.65
2023-04-14T23:30:54.688Z,4.25
2023-04-14T23:33:40.961Z,3.33
2023-04-14T23:36:27.151Z,4.40
2023-04-14T23:39:13.810Z,4.20
2023-04-14T23:42:00.548Z,4.25
2023-04-14T23:44:48.163Z,3.85
2023-04-14T23:47:34.440Z,4.10
2023-04-14T23:50:20.589Z,4.15
2023-04-14T23:53:07.922Z,4.43
2023-04-14T23:55:54.498Z,4.50
2023-04-14T23:58:40.605Z,4.53
